CCF weather

Carcassonne Airport
Carcassonne/Salvaza, Languedoc-Roussillon, France

Public forecast

Using degrees Celsius for public forecast. Weather courtesy of forecast.io.

Current aviation weather report (METAR) for Carcassonne Airport

Retrieved 2019/10/18 01:30 UTC (0 seconds ago):

LFMK 180130Z AUTO VRB03KT 9999 OVC017 11/11 Q1015

Aviation forecast (TAF) for Carcassonne Airport

Forecast is more than 6 hours old.

Retrieved 2019/10/17 18:13 UTC (7 hours ago):

TAF LFMK 171807Z 1718/1815 CNL